createdAt,value
2017-12-21T00:00:25.658Z,8.09
2017-12-21T00:01:25.677Z,8.15
2017-12-21T00:02:25.694Z,8.12
2017-12-21T00:03:25.764Z,8.16
2017-12-21T00:04:25.731Z,8.16
2017-12-21T00:05:25.750Z,8.13
2017-12-21T00:06:25.822Z,8.18
2017-12-21T00:07:25.787Z,8.13
2017-12-21T00:08:25.812Z,8.23
2017-12-21T00:09:25.822Z,8.16
2017-12-21T00:10:25.841Z,8.13
2017-12-21T00:11:25.860Z,8.15
2017-12-21T00:12:25.877Z,8.18
2017-12-21T00:13:25.895Z,8.18
2017-12-21T00:14:25.912Z,8.19
2017-12-21T00:15:25.931Z,8.18
2017-12-21T00:16:25.950Z,8.16
2017-12-21T00:17:25.968Z,8.28
2017-12-21T00:18:25.990Z,8.33
2017-12-21T00:19:26.004Z,8.24
2017-12-21T00:20:26.023Z,8.23
2017-12-21T00:21:26.041Z,8.33
2017-12-21T00:22:26.058Z,8.31
2017-12-21T00:23:26.081Z,8.23
2017-12-21T00:24:26.097Z,8.30
2017-12-21T00:25:26.114Z,8.23
2017-12-21T00:26:26.133Z,8.26
2017-12-21T00:27:26.150Z,8.28
2017-12-21T00:28:26.219Z,8.24
2017-12-21T00:29:26.187Z,8.31
2017-12-21T00:30:26.205Z,8.24
2017-12-21T00:31:26.223Z,8.18
2017-12-21T00:32:26.242Z,8.23
2017-12-21T00:33:26.261Z,8.15
2017-12-21T00:34:26.278Z,8.26
2017-12-21T00:35:26.297Z,8.23
2017-12-21T00:36:26.314Z,8.27
2017-12-21T00:37:26.333Z,8.23
2017-12-21T00:38:26.352Z,8.13
2017-12-21T00:39:26.370Z,8.19
2017-12-21T00:40:26.389Z,8.20
2017-12-21T00:41:26.406Z,8.18
2017-12-21T00:42:26.423Z,8.13
2017-12-21T00:43:26.444Z,8.13
2017-12-21T00:44:26.465Z,8.18
2017-12-21T00:45:26.480Z,8.23
2017-12-21T00:46:26.498Z,8.23
2017-12-21T00:47:26.517Z,8.23
2017-12-21T00:48:26.533Z,8.23
2017-12-21T00:49:26.553Z,8.23
2017-12-21T00:50:26.619Z,8.23
2017-12-21T00:51:26.588Z,8.19
2017-12-21T00:52:26.606Z,8.10
2017-12-21T00:53:26.627Z,8.16
2017-12-21T00:54:26.642Z,8.20
2017-12-21T00:55:26.662Z,8.19
2017-12-21T00:56:26.680Z,8.15
2017-12-21T00:57:26.698Z,8.09
2017-12-21T00:58:26.715Z,8.20
2017-12-21T00:59:26.738Z,8.13
2017-12-21T01:00:26.751Z,8.15
2017-12-21T01:01:26.771Z,8.20
2017-12-21T01:02:26.788Z,8.15
2017-12-21T01:03:26.806Z,8.13
2017-12-21T01:04:26.824Z,8.23
2017-12-21T01:05:26.843Z,8.18
2017-12-21T01:06:26.860Z,8.20
2017-12-21T01:07:26.878Z,8.26
2017-12-21T01:08:26.897Z,8.30
2017-12-21T01:09:26.917Z,8.19
2017-12-21T01:10:26.933Z,8.26
2017-12-21T01:11:26.981Z,8.24
2017-12-21T01:12:26.970Z,8.26
2017-12-21T01:13:27.039Z,8.24
2017-12-21T01:14:27.007Z,8.20
2017-12-21T01:15:27.025Z,8.24
2017-12-21T01:16:27.043Z,8.23
2017-12-21T01:17:27.061Z,8.19
2017-12-21T01:18:27.080Z,8.23
2017-12-21T01:19:27.097Z,8.13
2017-12-21T01:20:27.117Z,8.16
2017-12-21T01:21:27.134Z,8.13
2017-12-21T01:22:27.152Z,8.12
2017-12-21T01:23:27.170Z,8.16
2017-12-21T01:24:27.190Z,8.15
2017-12-21T01:25:27.209Z,8.13
2017-12-21T01:26:27.226Z,8.15
2017-12-21T01:27:27.244Z,8.20
2017-12-21T01:28:27.263Z,8.18
2017-12-21T01:29:27.282Z,8.23
2017-12-21T01:30:27.297Z,8.16
2017-12-21T01:31:27.317Z,8.26
2017-12-21T01:32:27.336Z,8.26
2017-12-21T01:33:27.355Z,8.19
2017-12-21T01:34:27.371Z,8.20
2017-12-21T01:35:27.389Z,8.20
2017-12-21T01:36:27.409Z,8.26
2017-12-21T01:37:27.428Z,8.23
2017-12-21T01:38:27.445Z,8.19
2017-12-21T01:39:27.462Z,8.19
2017-12-21T01:40:27.481Z,8.15
2017-12-21T01:41:27.500Z,8.23
2017-12-21T01:42:27.517Z,8.16
2017-12-21T01:43:27.536Z,8.26
2017-12-21T01:44:27.554Z,8.24
2017-12-21T01:45:27.573Z,8.24
2017-12-21T01:46:27.592Z,8.19
2017-12-21T01:47:27.609Z,8.19
2017-12-21T01:48:27.629Z,8.18
2017-12-21T01:49:27.645Z,8.19
2017-12-21T01:50:27.664Z,8.18
2017-12-21T01:51:27.732Z,8.18
2017-12-21T01:52:27.702Z,8.24
2017-12-21T01:53:27.718Z,8.19
2017-12-21T01:54:27.738Z,8.13
2017-12-21T01:55:27.756Z,8.24
2017-12-21T01:56:27.773Z,8.23
2017-12-21T01:57:27.793Z,8.23
2017-12-21T01:58:27.810Z,8.19
2017-12-21T01:59:27.827Z,8.26
2017-12-21T02:00:27.851Z,8.18
2017-12-21T02:01:27.867Z,8.24
2017-12-21T02:02:27.883Z,8.23
2017-12-21T02:03:27.902Z,8.27
2017-12-21T02:04:27.918Z,8.24
2017-12-21T02:05:27.938Z,8.23
2017-12-21T02:06:27.955Z,8.23
2017-12-21T02:07:27.974Z,8.41
2017-12-21T02:08:27.998Z,8.37
2017-12-21T02:09:28.014Z,8.26
2017-12-21T02:10:28.078Z,8.31
2017-12-21T02:11:28.047Z,8.36
2017-12-21T02:12:28.066Z,8.37
2017-12-21T02:13:28.084Z,8.36
2017-12-21T02:14:28.100Z,8.38
2017-12-21T02:15:28.120Z,8.38
2017-12-21T02:16:28.138Z,8.33
2017-12-21T02:17:28.156Z,8.33
2017-12-21T02:18:28.174Z,8.36
2017-12-21T02:19:28.192Z,8.34
2017-12-21T02:20:28.210Z,8.41
2017-12-21T02:21:28.229Z,8.37
2017-12-21T02:22:28.247Z,8.28
2017-12-21T02:23:28.264Z,8.26
2017-12-21T02:24:28.282Z,8.36
2017-12-21T02:25:28.300Z,8.37
2017-12-21T02:26:28.369Z,8.34
2017-12-21T02:27:28.336Z,8.31
2017-12-21T02:28:28.355Z,8.36
2017-12-21T02:29:28.373Z,8.34
2017-12-21T02:30:28.396Z,8.36
2017-12-21T02:31:28.409Z,8.30
2017-12-21T02:32:28.428Z,8.27
2017-12-21T02:33:28.446Z,8.38
2017-12-21T02:34:28.463Z,8.36
2017-12-21T02:35:28.482Z,8.24
2017-12-21T02:36:28.502Z,8.23
2017-12-21T02:37:28.518Z,8.26
2017-12-21T02:38:28.537Z,8.30
2017-12-21T02:39:28.559Z,8.31
2017-12-21T02:40:28.573Z,8.27
2017-12-21T02:41:28.593Z,8.33
2017-12-21T02:42:28.609Z,8.26
2017-12-21T02:43:28.628Z,8.23
2017-12-21T02:44:28.654Z,8.34
2017-12-21T02:45:28.665Z,8.42
2017-12-21T02:46:28.682Z,8.34
2017-12-21T02:47:28.701Z,8.37
2017-12-21T02:48:28.719Z,8.30
2017-12-21T02:49:28.788Z,8.38
2017-12-21T02:50:28.754Z,8.23
2017-12-21T02:51:28.773Z,8.36
2017-12-21T02:52:28.791Z,8.27
2017-12-21T02:53:28.811Z,8.34
2017-12-21T02:54:28.827Z,8.38
2017-12-21T02:55:28.846Z,8.33
2017-12-21T02:56:28.862Z,8.34
2017-12-21T02:57:28.881Z,8.34
2017-12-21T02:58:28.900Z,8.31
2017-12-21T02:59:28.917Z,8.34
2017-12-21T03:00:28.936Z,8.36
2017-12-21T03:01:28.954Z,8.34
2017-12-21T03:02:28.972Z,8.31
2017-12-21T03:03:28.991Z,8.34
2017-12-21T03:04:29.009Z,8.36
2017-12-21T03:05:29.028Z,8.36
2017-12-21T03:06:29.043Z,8.37
2017-12-21T03:07:29.069Z,8.37
2017-12-21T03:08:29.082Z,8.34
2017-12-21T03:09:29.151Z,8.33
2017-12-21T03:10:29.119Z,8.38
2017-12-21T03:11:29.137Z,8.36
2017-12-21T03:12:29.155Z,8.30
2017-12-21T03:13:29.173Z,8.37
2017-12-21T03:14:29.192Z,8.37
2017-12-21T03:15:29.209Z,8.37
2017-12-21T03:16:29.228Z,8.31
2017-12-21T03:17:29.246Z,8.36
2017-12-21T03:18:29.265Z,8.34
2017-12-21T03:19:29.282Z,8.33
2017-12-21T03:20:29.302Z,8.36
2017-12-21T03:21:29.319Z,8.36
2017-12-21T03:22:29.338Z,8.34
2017-12-21T03:23:29.355Z,8.34
2017-12-21T03:24:29.375Z,8.34
2017-12-21T03:25:29.394Z,8.37
2017-12-21T03:26:29.410Z,8.34
2017-12-21T03:27:29.429Z,8.36
2017-12-21T03:28:29.449Z,8.41
2017-12-21T03:29:29.467Z,8.41
2017-12-21T03:30:29.488Z,8.36
2017-12-21T03:31:29.503Z,8.33
2017-12-21T03:32:29.521Z,8.38
2017-12-21T03:33:29.540Z,8.38
2017-12-21T03:34:29.557Z,8.36
2017-12-21T03:35:29.576Z,8.33
2017-12-21T03:36:29.594Z,8.41
2017-12-21T03:37:29.613Z,8.36
2017-12-21T03:38:29.681Z,8.34
2017-12-21T03:39:29.651Z,8.34
2017-12-21T03:40:29.670Z,8.37
2017-12-21T03:41:29.686Z,8.42
2017-12-21T03:42:29.706Z,8.37
2017-12-21T03:43:29.723Z,8.48
2017-12-21T03:44:29.742Z,8.37
2017-12-21T03:45:29.760Z,8.36
2017-12-21T03:46:29.778Z,8.38
2017-12-21T03:47:29.796Z,8.37
2017-12-21T03:48:29.836Z,8.42
2017-12-21T03:49:29.832Z,8.36
2017-12-21T03:50:29.850Z,8.38
2017-12-21T03:51:29.870Z,8.34
2017-12-21T03:52:29.887Z,8.41
2017-12-21T03:53:29.906Z,8.34
2017-12-21T03:54:29.925Z,8.38
2017-12-21T03:55:29.945Z,8.36
2017-12-21T03:56:29.961Z,8.37
2017-12-21T03:57:29.980Z,8.33
2017-12-21T03:58:29.998Z,8.33
2017-12-21T03:59:30.017Z,8.44
2017-12-21T04:00:30.035Z,8.34
2017-12-21T04:01:30.053Z,8.36
2017-12-21T04:02:30.073Z,8.36
2017-12-21T04:03:30.090Z,8.44
2017-12-21T04:04:30.112Z,8.36
2017-12-21T04:05:30.135Z,8.37
2017-12-21T04:06:30.144Z,8.38
2017-12-21T04:07:30.163Z,8.36
2017-12-21T04:08:30.183Z,8.33
2017-12-21T04:09:30.200Z,8.33
2017-12-21T04:10:30.219Z,8.31
2017-12-21T04:11:30.238Z,8.33
2017-12-21T04:12:30.256Z,8.30
2017-12-21T04:13:30.275Z,8.37
2017-12-21T04:14:30.293Z,8.33
2017-12-21T04:15:30.317Z,8.33
2017-12-21T04:16:30.329Z,8.34
2017-12-21T04:17:30.348Z,8.30
2017-12-21T04:18:30.366Z,8.33
2017-12-21T04:19:30.384Z,8.28
2017-12-21T04:20:30.403Z,8.30
2017-12-21T04:21:30.421Z,8.33
2017-12-21T04:22:30.439Z,8.30
2017-12-21T04:23:30.457Z,8.33
2017-12-21T04:24:30.475Z,8.36
2017-12-21T04:25:30.494Z,8.37
2017-12-21T04:26:30.562Z,8.28
2017-12-21T04:27:30.531Z,8.36
2017-12-21T04:28:30.548Z,8.37
2017-12-21T04:29:30.567Z,8.34
2017-12-21T04:30:30.585Z,8.31
2017-12-21T04:31:30.603Z,8.37
2017-12-21T04:32:30.625Z,8.42
2017-12-21T04:33:30.639Z,8.36
2017-12-21T04:34:30.658Z,8.37
2017-12-21T04:35:30.676Z,8.34
2017-12-21T04:36:30.696Z,8.24
2017-12-21T04:37:30.714Z,8.19
2017-12-21T04:38:30.731Z,8.24
2017-12-21T04:39:30.749Z,8.33
2017-12-21T04:40:30.769Z,8.24
2017-12-21T04:41:30.787Z,8.33
2017-12-21T04:42:30.804Z,8.20
2017-12-21T04:43:30.823Z,8.20
2017-12-21T04:44:30.892Z,8.19
2017-12-21T04:45:30.860Z,8.18
2017-12-21T04:46:30.878Z,8.18
2017-12-21T04:47:30.896Z,8.18
2017-12-21T04:48:30.914Z,8.19
2017-12-21T04:49:30.933Z,8.30
2017-12-21T04:50:30.950Z,8.30
2017-12-21T04:51:30.969Z,8.19
2017-12-21T04:52:30.988Z,8.28
2017-12-21T04:53:31.005Z,8.19
2017-12-21T04:54:31.023Z,8.24
2017-12-21T04:55:31.042Z,8.18
2017-12-21T04:56:31.062Z,8.23
2017-12-21T04:57:31.078Z,8.20
2017-12-21T04:58:31.095Z,8.24
2017-12-21T04:59:31.115Z,8.15
2017-12-21T05:00:31.134Z,8.13
2017-12-21T05:01:31.150Z,8.24
2017-12-21T05:02:31.169Z,8.19
2017-12-21T05:03:31.188Z,8.23
2017-12-21T05:04:31.205Z,8.16
2017-12-21T05:05:31.224Z,8.16
2017-12-21T05:06:31.241Z,8.16
2017-12-21T05:07:31.260Z,8.19
2017-12-21T05:08:31.279Z,8.18
2017-12-21T05:09:34.330Z,8.19
2017-12-21T05:10:31.314Z,8.16
2017-12-21T05:11:31.333Z,8.23
2017-12-21T05:12:31.407Z,8.23
2017-12-21T05:13:31.421Z,8.18
2017-12-21T05:14:31.388Z,8.16
2017-12-21T05:15:31.406Z,8.19
2017-12-21T05:16:31.424Z,8.24
2017-12-21T05:17:31.442Z,8.23
2017-12-21T05:18:31.460Z,8.19
2017-12-21T05:19:31.479Z,8.16
2017-12-21T05:20:31.498Z,8.19
2017-12-21T05:21:31.518Z,8.23
2017-12-21T05:22:31.534Z,8.20
2017-12-21T05:23:31.552Z,8.19
2017-12-21T05:24:31.570Z,8.24
2017-12-21T05:25:31.588Z,8.24
2017-12-21T05:26:31.606Z,8.23
2017-12-21T05:27:31.625Z,8.20
2017-12-21T05:28:31.642Z,8.18
2017-12-21T05:29:31.661Z,8.19
2017-12-21T05:30:31.678Z,8.20
2017-12-21T05:31:31.702Z,8.23
2017-12-21T05:32:31.715Z,8.24
2017-12-21T05:33:31.734Z,8.18
2017-12-21T05:34:31.752Z,8.19
2017-12-21T05:35:31.769Z,8.26
2017-12-21T05:36:31.789Z,8.24
2017-12-21T05:37:31.808Z,8.23
2017-12-21T05:38:31.825Z,8.19
2017-12-21T05:39:31.843Z,8.28
2017-12-21T05:40:31.861Z,8.24
2017-12-21T05:41:31.879Z,8.16
2017-12-21T05:42:31.898Z,8.27
2017-12-21T05:43:31.915Z,8.20
2017-12-21T05:44:31.935Z,8.20
2017-12-21T05:45:32.054Z,8.15
2017-12-21T05:46:31.970Z,8.16
2017-12-21T05:47:31.989Z,8.24
2017-12-21T05:48:32.006Z,8.23
2017-12-21T05:49:32.026Z,8.19
2017-12-21T05:50:32.043Z,8.18
2017-12-21T05:51:32.061Z,8.30
2017-12-21T05:52:32.080Z,8.20
2017-12-21T05:53:32.098Z,8.23
2017-12-21T05:54:32.116Z,8.16
2017-12-21T05:55:32.134Z,8.13
2017-12-21T05:56:32.152Z,8.19
2017-12-21T05:57:32.170Z,8.18
2017-12-21T05:58:32.188Z,8.19
2017-12-21T05:59:32.207Z,8.20
2017-12-21T06:00:32.225Z,8.30
2017-12-21T06:01:32.243Z,8.19
2017-12-21T06:02:32.261Z,8.18
2017-12-21T06:03:32.279Z,8.28
2017-12-21T06:04:32.298Z,8.18
2017-12-21T06:05:32.316Z,8.31
2017-12-21T06:06:32.334Z,8.18
2017-12-21T06:07:32.353Z,8.24
2017-12-21T06:08:32.369Z,8.27
2017-12-21T06:09:32.389Z,8.19
2017-12-21T06:10:32.406Z,8.33
2017-12-21T06:11:32.424Z,8.28
2017-12-21T06:12:32.441Z,8.27
2017-12-21T06:13:32.461Z,8.30
2017-12-21T06:14:32.477Z,8.20
2017-12-21T06:15:32.501Z,8.28
2017-12-21T06:16:32.523Z,8.28
2017-12-21T06:17:32.533Z,8.18
2017-12-21T06:18:32.551Z,8.18
2017-12-21T06:19:32.570Z,8.19
2017-12-21T06:20:32.588Z,8.28
2017-12-21T06:21:32.605Z,8.23
2017-12-21T06:22:32.622Z,8.33
2017-12-21T06:23:32.640Z,8.30
2017-12-21T06:24:32.660Z,8.20
2017-12-21T06:25:32.678Z,8.31
2017-12-21T06:26:32.695Z,8.31
2017-12-21T06:27:32.713Z,8.27
2017-12-21T06:28:32.732Z,8.33
2017-12-21T06:29:32.750Z,8.27
2017-12-21T06:30:32.817Z,8.28
2017-12-21T06:31:32.787Z,8.33
2017-12-21T06:32:32.803Z,8.37
2017-12-21T06:33:32.823Z,8.26
2017-12-21T06:34:32.840Z,8.31
2017-12-21T06:35:32.859Z,8.24
2017-12-21T06:36:32.877Z,8.31
2017-12-21T06:37:32.950Z,8.34
2017-12-21T06:38:32.914Z,8.37
2017-12-21T06:39:32.932Z,8.38
2017-12-21T06:40:32.949Z,8.34
2017-12-21T06:41:32.969Z,8.38
2017-12-21T06:42:32.985Z,8.44
2017-12-21T06:43:33.005Z,8.37
2017-12-21T06:44:33.022Z,8.34
2017-12-21T06:45:33.044Z,8.36
2017-12-21T06:46:33.059Z,8.26
2017-12-21T06:47:33.077Z,8.28
2017-12-21T06:48:33.095Z,8.38
2017-12-21T06:49:33.115Z,8.33
2017-12-21T06:50:33.131Z,8.28
2017-12-21T06:51:33.150Z,8.38
2017-12-21T06:52:33.169Z,8.33
2017-12-21T06:53:33.190Z,8.36
2017-12-21T06:54:33.204Z,8.33
2017-12-21T06:55:33.224Z,8.30
2017-12-21T06:56:33.241Z,8.33
2017-12-21T06:57:33.260Z,8.33
2017-12-21T06:58:33.277Z,8.33
2017-12-21T06:59:33.295Z,8.38
2017-12-21T07:00:33.314Z,8.33
2017-12-21T07:01:33.332Z,8.38
2017-12-21T07:02:33.386Z,8.37
2017-12-21T07:03:33.369Z,8.38
2017-12-21T07:04:33.387Z,8.41
2017-12-21T07:05:33.406Z,8.34
2017-12-21T07:06:33.422Z,8.41
2017-12-21T07:07:33.441Z,8.30
2017-12-21T07:08:33.511Z,8.34
2017-12-21T07:09:33.480Z,8.36
2017-12-21T07:10:33.497Z,8.31
2017-12-21T07:11:33.515Z,8.34
2017-12-21T07:12:33.533Z,8.36
2017-12-21T07:13:33.552Z,8.34
2017-12-21T07:14:33.569Z,8.41
2017-12-21T07:15:33.637Z,8.34
2017-12-21T07:16:33.608Z,8.36
2017-12-21T07:17:33.625Z,8.37
2017-12-21T07:18:33.640Z,8.38
2017-12-21T07:19:33.660Z,8.33
2017-12-21T07:20:33.676Z,8.31
2017-12-21T07:21:33.696Z,8.31
2017-12-21T07:22:33.715Z,8.34
2017-12-21T07:23:33.731Z,8.36
2017-12-21T07:24:33.750Z,8.38
2017-12-21T07:25:33.768Z,8.33
2017-12-21T07:26:33.785Z,8.45
2017-12-21T07:27:33.808Z,8.42
2017-12-21T07:28:33.821Z,8.34
2017-12-21T07:29:33.841Z,8.33
2017-12-21T07:30:33.858Z,8.38
2017-12-21T07:31:33.875Z,8.31
2017-12-21T07:32:33.894Z,8.42
2017-12-21T07:33:33.912Z,8.36
2017-12-21T07:34:33.931Z,8.33
2017-12-21T07:35:34.025Z,8.42
2017-12-21T07:36:33.966Z,8.33
2017-12-21T07:37:33.985Z,8.33
2017-12-21T07:38:34.003Z,8.36
2017-12-21T07:39:34.022Z,8.37
2017-12-21T07:40:34.039Z,8.34
2017-12-21T07:41:34.059Z,8.37
2017-12-21T07:42:34.076Z,8.36
2017-12-21T07:43:34.143Z,8.34
2017-12-21T07:44:34.113Z,8.38
2017-12-21T07:45:34.131Z,8.44
2017-12-21T07:46:34.149Z,8.37
2017-12-21T07:47:34.167Z,8.41
2017-12-21T07:48:34.184Z,8.34
2017-12-21T07:49:34.203Z,8.37
2017-12-21T07:50:34.221Z,8.38
2017-12-21T07:51:34.239Z,8.44
2017-12-21T07:52:34.258Z,8.34
2017-12-21T07:53:34.277Z,8.36
2017-12-21T07:54:34.294Z,8.48
2017-12-21T07:55:34.312Z,8.49
2017-12-21T07:56:34.331Z,8.46
2017-12-21T07:57:34.351Z,8.46
2017-12-21T07:58:34.366Z,8.48
2017-12-21T07:59:34.385Z,8.45
2017-12-21T08:00:34.404Z,8.48
2017-12-21T08:01:34.422Z,8.37
2017-12-21T08:02:34.439Z,8.49
2017-12-21T08:03:34.457Z,8.49
2017-12-21T08:04:34.476Z,8.45
2017-12-21T08:05:34.494Z,8.41
2017-12-21T08:06:34.512Z,8.48
2017-12-21T08:07:34.531Z,8.46
2017-12-21T08:08:34.548Z,8.48
2017-12-21T08:09:34.569Z,8.46
2017-12-21T08:10:34.586Z,8.51
2017-12-21T08:11:34.603Z,8.51
2017-12-21T08:12:34.623Z,8.44
2017-12-21T08:13:34.643Z,8.34
2017-12-21T08:14:34.659Z,8.38
2017-12-21T08:15:34.681Z,8.49
2017-12-21T08:16:34.703Z,8.42
2017-12-21T08:17:34.715Z,8.46
2017-12-21T08:18:34.746Z,8.48
2017-12-21T08:19:34.753Z,8.49
2017-12-21T08:20:34.770Z,8.46
2017-12-21T08:21:34.787Z,8.46
2017-12-21T08:22:34.806Z,8.51
2017-12-21T08:23:34.827Z,8.48
2017-12-21T08:24:34.843Z,8.56
2017-12-21T08:25:34.861Z,8.51
2017-12-21T08:26:34.881Z,8.52
2017-12-21T08:27:34.897Z,8.56
2017-12-21T08:28:34.916Z,8.52
2017-12-21T08:29:34.933Z,8.52
2017-12-21T08:30:34.951Z,8.52
2017-12-21T08:31:34.969Z,8.58
2017-12-21T08:32:34.991Z,8.55
2017-12-21T08:33:35.008Z,8.52
2017-12-21T08:34:35.024Z,8.52
2017-12-21T08:35:35.043Z,8.52
2017-12-21T08:36:35.061Z,8.58
2017-12-21T08:37:35.080Z,8.53
2017-12-21T08:38:35.098Z,8.55
2017-12-21T08:39:35.117Z,8.60
2017-12-21T08:40:35.135Z,8.63
2017-12-21T08:41:35.153Z,8.60
2017-12-21T08:42:35.174Z,8.64
2017-12-21T08:43:35.190Z,8.60
2017-12-21T08:44:35.209Z,8.56
2017-12-21T08:45:35.228Z,8.70
2017-12-21T08:46:35.295Z,8.71
2017-12-21T08:47:35.264Z,8.66
2017-12-21T08:48:35.281Z,8.56
2017-12-21T08:49:35.300Z,8.64
2017-12-21T08:50:35.318Z,8.69
2017-12-21T08:51:35.336Z,8.64
2017-12-21T08:52:35.355Z,8.66
2017-12-21T08:53:35.373Z,8.74
2017-12-21T08:54:35.392Z,8.69
2017-12-21T08:55:35.409Z,8.73
2017-12-21T08:56:35.435Z,8.73
2017-12-21T08:57:35.448Z,8.70
2017-12-21T08:58:35.465Z,8.73
2017-12-21T08:59:35.485Z,8.73
2017-12-21T09:00:35.503Z,8.73
2017-12-21T09:01:35.520Z,8.69
2017-12-21T09:02:35.539Z,8.71
2017-12-21T09:03:35.557Z,8.71
2017-12-21T09:04:35.575Z,8.71
2017-12-21T09:05:35.795Z,8.64
2017-12-21T09:06:35.615Z,8.73
2017-12-21T09:07:35.632Z,8.76
2017-12-21T09:08:35.649Z,8.70
2017-12-21T09:09:35.668Z,8.78
2017-12-21T09:10:35.685Z,8.71
2017-12-21T09:11:35.706Z,8.73
2017-12-21T09:12:35.723Z,8.74
2017-12-21T09:13:35.743Z,8.78
2017-12-21T09:14:35.760Z,8.67
2017-12-21T09:15:35.779Z,8.74
2017-12-21T09:16:35.798Z,8.71
2017-12-21T09:17:35.817Z,8.74
2017-12-21T09:18:35.834Z,8.74
2017-12-21T09:19:35.853Z,8.73
2017-12-21T09:20:35.870Z,8.73
2017-12-21T09:21:35.891Z,8.74
2017-12-21T09:22:35.909Z,8.73
2017-12-21T09:23:35.928Z,8.61
2017-12-21T09:24:35.945Z,8.78
2017-12-21T09:25:35.965Z,8.70
2017-12-21T09:26:35.982Z,8.78
2017-12-21T09:27:36.002Z,8.71
2017-12-21T09:28:36.023Z,8.74
2017-12-21T09:29:36.037Z,8.71
2017-12-21T09:30:36.057Z,8.70
2017-12-21T09:31:36.075Z,8.73
2017-12-21T09:32:36.093Z,8.69
2017-12-21T09:33:36.112Z,8.69
2017-12-21T09:34:36.130Z,8.81
2017-12-21T09:35:36.148Z,8.67
2017-12-21T09:36:36.168Z,8.70
2017-12-21T09:37:36.187Z,8.74
2017-12-21T09:38:36.205Z,8.78
2017-12-21T09:39:36.222Z,8.78
2017-12-21T09:40:36.245Z,8.69
2017-12-21T09:41:36.261Z,8.69
2017-12-21T09:42:36.278Z,8.82
2017-12-21T09:43:36.298Z,8.85
2017-12-21T09:44:36.317Z,8.79
2017-12-21T09:45:36.335Z,8.82
2017-12-21T09:46:36.356Z,8.84
2017-12-21T09:47:36.371Z,8.70
2017-12-21T09:48:36.391Z,8.79
2017-12-21T09:49:36.409Z,8.84
2017-12-21T09:50:36.427Z,8.71
2017-12-21T09:51:36.446Z,8.73
2017-12-21T09:52:36.465Z,8.73
2017-12-21T09:53:36.485Z,8.76
2017-12-21T09:54:36.501Z,8.74
2017-12-21T09:55:36.520Z,8.78
2017-12-21T09:56:36.540Z,8.82
2017-12-21T09:57:36.557Z,8.89
2017-12-21T09:58:36.575Z,8.71
2017-12-21T09:59:36.592Z,8.69
2017-12-21T10:00:36.611Z,8.71
2017-12-21T10:01:36.630Z,8.76
2017-12-21T10:02:36.647Z,8.79
2017-12-21T10:03:36.667Z,8.69
2017-12-21T10:04:36.787Z,8.79
2017-12-21T10:05:36.703Z,8.79
2017-12-21T10:06:36.722Z,8.73
2017-12-21T10:07:36.741Z,8.69
2017-12-21T10:08:36.758Z,8.84
2017-12-21T10:09:36.778Z,8.84
2017-12-21T10:10:36.795Z,8.85
2017-12-21T10:11:36.813Z,8.88
2017-12-21T10:12:36.832Z,8.81
2017-12-21T10:13:36.850Z,8.81
2017-12-21T10:14:36.873Z,8.85
2017-12-21T10:15:36.886Z,8.82
2017-12-21T10:16:36.907Z,8.79
2017-12-21T10:17:36.923Z,8.82
2017-12-21T10:18:36.942Z,8.70
2017-12-21T10:19:36.961Z,8.73
2017-12-21T10:20:36.982Z,8.71
2017-12-21T10:21:37.004Z,8.87
2017-12-21T10:22:37.014Z,8.81
2017-12-21T10:23:37.035Z,8.69
2017-12-21T10:24:37.054Z,8.82
2017-12-21T10:25:37.077Z,8.79
2017-12-21T10:26:37.091Z,8.71
2017-12-21T10:27:37.107Z,8.71
2017-12-21T10:28:37.133Z,8.78
2017-12-21T10:29:37.144Z,8.87
2017-12-21T10:30:37.164Z,8.82
2017-12-21T10:31:37.181Z,8.78
2017-12-21T10:32:37.198Z,8.79
2017-12-21T10:33:37.224Z,8.82
2017-12-21T10:34:37.334Z,8.76
2017-12-21T10:35:37.255Z,8.79
2017-12-21T10:36:37.273Z,8.71
2017-12-21T10:37:37.291Z,8.79
2017-12-21T10:38:37.308Z,8.79
2017-12-21T10:39:37.327Z,8.82
2017-12-21T10:40:37.345Z,8.81
2017-12-21T10:41:37.364Z,8.89
2017-12-21T10:42:37.383Z,8.81
2017-12-21T10:43:37.402Z,8.81
2017-12-21T10:44:37.419Z,8.89
2017-12-21T10:45:37.438Z,8.89
2017-12-21T10:46:37.455Z,8.91
2017-12-21T10:47:37.474Z,8.95
2017-12-21T10:48:37.492Z,8.89
2017-12-21T10:49:37.512Z,8.88
2017-12-21T10:50:37.529Z,8.94
2017-12-21T10:51:37.548Z,8.97
2017-12-21T10:52:37.566Z,9.02
2017-12-21T10:53:37.584Z,8.88
2017-12-21T10:54:37.606Z,8.92
2017-12-21T10:55:37.622Z,8.89
2017-12-21T10:56:37.640Z,8.95
2017-12-21T10:57:37.659Z,8.88
2017-12-21T10:58:37.676Z,8.94
2017-12-21T10:59:37.694Z,8.91
2017-12-21T11:00:37.715Z,8.91
2017-12-21T11:01:37.733Z,8.89
2017-12-21T11:02:37.750Z,9.02
2017-12-21T11:03:37.801Z,9.00
2017-12-21T11:04:37.788Z,9.04
2017-12-21T11:05:37.807Z,9.00
2017-12-21T11:06:37.835Z,9.00
2017-12-21T11:07:37.843Z,9.02
2017-12-21T11:08:37.860Z,9.11
2017-12-21T11:09:37.879Z,8.97
2017-12-21T11:10:37.896Z,9.13
2017-12-21T11:11:37.917Z,9.10
2017-12-21T11:12:37.934Z,9.11
2017-12-21T11:13:37.955Z,9.14
2017-12-21T11:14:37.972Z,9.08
2017-12-21T11:15:37.990Z,9.18
2017-12-21T11:16:38.009Z,9.13
2017-12-21T11:17:38.028Z,9.08
2017-12-21T11:18:38.045Z,9.16
2017-12-21T11:19:38.064Z,9.14
2017-12-21T11:20:38.082Z,9.13
2017-12-21T11:21:38.102Z,9.22
2017-12-21T11:22:38.119Z,9.21
2017-12-21T11:23:38.145Z,9.29
2017-12-21T11:24:38.157Z,9.21
2017-12-21T11:25:38.177Z,9.22
2017-12-21T11:26:38.195Z,9.26
2017-12-21T11:27:38.264Z,9.19
2017-12-21T11:28:38.235Z,9.22
2017-12-21T11:29:38.252Z,9.22
2017-12-21T11:30:38.269Z,9.22
2017-12-21T11:31:38.288Z,9.26
2017-12-21T11:32:38.309Z,9.32
2017-12-21T11:33:38.325Z,9.23
2017-12-21T11:34:38.344Z,9.29
2017-12-21T11:35:38.364Z,9.31
2017-12-21T11:36:38.382Z,9.25
2017-12-21T11:37:38.402Z,9.28
2017-12-21T11:38:38.419Z,9.23
2017-12-21T11:39:38.438Z,9.26
2017-12-21T11:40:38.458Z,9.19
2017-12-21T11:41:38.477Z,9.26
2017-12-21T11:42:38.495Z,9.31
2017-12-21T11:43:38.564Z,9.21
2017-12-21T11:44:38.533Z,9.28
2017-12-21T11:45:38.552Z,9.22
2017-12-21T11:46:38.570Z,9.32
2017-12-21T11:47:38.588Z,9.23
2017-12-21T11:48:38.608Z,9.26
2017-12-21T11:49:38.628Z,9.29
2017-12-21T11:50:38.645Z,9.26
2017-12-21T11:51:38.663Z,9.25
2017-12-21T11:52:38.683Z,9.32
2017-12-21T11:53:38.703Z,9.34
2017-12-21T11:54:38.721Z,9.28
2017-12-21T11:55:38.739Z,9.31
2017-12-21T11:56:38.758Z,9.31
2017-12-21T11:57:38.778Z,9.36
2017-12-21T11:58:38.796Z,9.32
2017-12-21T11:59:38.817Z,9.37
2017-12-21T12:00:38.834Z,9.37
2017-12-21T12:01:38.853Z,9.36
2017-12-21T12:02:38.870Z,9.31
2017-12-21T12:03:38.890Z,9.31
2017-12-21T12:04:38.911Z,9.25
2017-12-21T12:05:38.931Z,9.26
2017-12-21T12:06:38.945Z,9.32
2017-12-21T12:07:38.964Z,9.31
2017-12-21T12:08:38.984Z,9.37
2017-12-21T12:09:39.004Z,9.36
2017-12-21T12:10:39.020Z,9.37
2017-12-21T12:11:39.039Z,9.37
2017-12-21T12:12:39.058Z,9.32
2017-12-21T12:13:39.076Z,9.37
2017-12-21T12:14:39.094Z,9.34
2017-12-21T12:15:39.215Z,9.37
2017-12-21T12:16:39.133Z,9.36
2017-12-21T12:17:39.152Z,9.31
2017-12-21T12:18:39.169Z,9.31
2017-12-21T12:19:39.191Z,9.39
2017-12-21T12:20:39.207Z,9.40
2017-12-21T12:21:39.227Z,9.36
2017-12-21T12:22:39.246Z,9.37
2017-12-21T12:23:39.263Z,9.47
2017-12-21T12:24:39.283Z,9.46
2017-12-21T12:25:39.302Z,9.44
2017-12-21T12:26:39.320Z,9.48
2017-12-21T12:27:39.339Z,9.44
2017-12-21T12:28:39.358Z,9.41
2017-12-21T12:29:39.376Z,9.48
2017-12-21T12:30:39.394Z,9.44
2017-12-21T12:31:39.414Z,9.59
2017-12-21T12:32:39.435Z,9.46
2017-12-21T12:33:39.451Z,9.55
2017-12-21T12:34:39.476Z,9.51
2017-12-21T12:35:39.488Z,9.56
2017-12-21T12:36:39.513Z,9.59
2017-12-21T12:37:39.525Z,9.59
2017-12-21T12:38:39.545Z,9.62
2017-12-21T12:39:39.564Z,9.58
2017-12-21T12:40:39.645Z,9.62
2017-12-21T12:41:39.609Z,9.61
2017-12-21T12:42:39.620Z,9.66
2017-12-21T12:43:39.639Z,9.58
2017-12-21T12:44:39.658Z,9.69
2017-12-21T12:45:39.678Z,9.66
2017-12-21T12:46:39.695Z,9.62
2017-12-21T12:47:39.713Z,9.69
2017-12-21T12:48:39.738Z,9.68
2017-12-21T12:49:39.752Z,9.66
2017-12-21T12:50:39.773Z,9.72
2017-12-21T12:51:39.791Z,9.68
2017-12-21T12:52:39.808Z,9.68
2017-12-21T12:53:39.829Z,9.65
2017-12-21T12:54:39.845Z,9.76
2017-12-21T12:55:39.865Z,9.72
2017-12-21T12:56:39.885Z,9.73
2017-12-21T12:57:39.904Z,9.69
2017-12-21T12:58:39.921Z,9.68
2017-12-21T12:59:39.940Z,9.76
2017-12-21T13:00:39.966Z,9.79
2017-12-21T13:01:39.978Z,9.74
2017-12-21T13:02:39.999Z,9.86
2017-12-21T13:03:40.016Z,9.87
2017-12-21T13:04:40.036Z,9.87
2017-12-21T13:05:40.054Z,9.87
2017-12-21T13:06:40.072Z,9.83
2017-12-21T13:07:40.100Z,9.79
2017-12-21T13:08:40.111Z,9.80
2017-12-21T13:09:40.131Z,9.77
2017-12-21T13:10:40.150Z,9.77
2017-12-21T13:11:40.168Z,9.77
2017-12-21T13:12:40.186Z,9.82
2017-12-21T13:13:40.206Z,9.79
2017-12-21T13:14:40.234Z,9.77
2017-12-21T13:15:40.244Z,9.83
2017-12-21T13:16:40.261Z,9.76
2017-12-21T13:17:40.282Z,9.79
2017-12-21T13:18:40.307Z,9.73